Time;durP1;ratioP1;P1;durP2;ratioP2;P2;SDS_P1;SDS_P2;PMS_P1;PMS_P2;Temp;Humidity;BMP_temperature;BMP_pressure;BME280_temperature;BME280_humidity;BME280_pressure;Samples;Min_cycle;Max_cycle;Signal;HPM_P1;HPM_P2
2021/12/30 00:01:11;;;;;;;56.47;6.93;;;8.40;99.90;;;;;;5053582;28;20060;-81
2021/12/30 00:03:37;;;;;;;66.13;7.10;;;8.40;99.90;;;;;;5031735;28;20044;-81
2021/12/30 00:06:03;;;;;;;77.65;7.82;;;8.30;99.90;;;;;;5057095;28;20052;-81
2021/12/30 00:08:29;;;;;;;59.25;7.45;;;8.30;99.90;;;;;;5053445;28;20500;-82
2021/12/30 00:10:55;;;;;;;48.78;6.63;;;8.30;99.90;;;;;;5019673;28;20055;-81
2021/12/30 00:13:21;;;;;;;58.85;7.63;;;8.30;99.90;;;;;;5045947;28;20044;-81
2021/12/30 00:15:47;;;;;;;76.65;7.70;;;8.30;99.90;;;;;;5057390;28;20438;-81
2021/12/30 00:18:13;;;;;;;55.22;7.50;;;8.30;99.90;;;;;;5073973;28;20045;-81
2021/12/30 00:20:39;;;;;;;62.95;8.05;;;8.30;99.90;;;;;;5074110;28;20421;-81
2021/12/30 00:23:07;;;;;;;46.35;6.68;;;8.20;99.90;;;;;;5052917;28;20057;-81
2021/12/30 00:25:39;;;;;;;65.72;8.57;;;8.20;99.90;;;;;;5036095;28;20045;-81
2021/12/30 00:28:11;;;;;;;57.38;8.98;;;8.20;99.90;;;;;;5052965;28;20052;-81
2021/12/30 00:30:37;;;;;;;68.63;8.95;;;8.20;99.90;;;;;;5056787;28;20131;-81
2021/12/30 00:33:03;;;;;;;58.20;8.15;;;8.20;99.90;;;;;;5052171;28;20048;-81
2021/12/30 00:35:29;;;;;;;67.13;9.55;;;8.20;99.90;;;;;;5042315;28;20051;-81
2021/12/30 00:37:55;;;;;;;63.10;8.32;;;8.20;99.90;;;;;;5056547;28;20127;-81
2021/12/30 00:40:21;;;;;;;57.70;9.32;;;8.20;99.90;;;;;;5038789;28;20033;-81
2021/12/30 00:42:47;;;;;;;63.75;8.15;;;8.20;99.90;;;;;;5039820;28;20049;-81
2021/12/30 00:45:13;;;;;;;61.00;7.30;;;8.10;99.90;;;;;;5055082;28;22051;-81
2021/12/30 00:47:39;;;;;;;69.28;9.60;;;8.10;99.90;;;;;;5056164;28;20127;-81
2021/12/30 00:50:05;;;;;;;68.45;7.82;;;8.10;99.90;;;;;;5055779;28;20101;-81
2021/12/30 00:52:31;;;;;;;58.28;9.27;;;8.10;99.90;;;;;;5038623;28;20044;-81
2021/12/30 00:54:57;;;;;;;56.70;8.48;;;8.10;99.90;;;;;;5056629;28;20048;-80
2021/12/30 00:57:22;;;;;;;52.58;7.57;;;8.10;99.90;;;;;;5036377;28;20037;-80
2021/12/30 00:59:48;;;;;;;65.50;9.45;;;8.10;99.90;;;;;;5048544;28;20045;-81
2021/12/30 01:02:14;;;;;;;55.55;8.00;;;8.10;99.90;;;;;;5056479;28;20040;-81
2021/12/30 01:04:40;;;;;;;65.80;9.02;;;8.10;99.90;;;;;;5056464;28;20045;-81
2021/12/30 01:07:05;;;;;;;67.20;8.75;;;8.10;99.90;;;;;;5054681;28;20127;-81
2021/12/30 01:09:31;;;;;;;61.05;8.13;;;8.10;99.90;;;;;;5073281;28;20056;-81
2021/12/30 01:11:58;;;;;;;50.95;6.88;;;8.10;99.90;;;;;;5036265;28;20072;-80
2021/12/30 01:14:28;;;;;;;73.65;9.10;;;8.00;99.90;;;;;;5049330;28;20048;-81
2021/12/30 01:16:58;;;;;;;49.00;7.47;;;8.10;99.90;;;;;;5055372;28;20546;-81
2021/12/30 01:19:42;;;;;;;60.80;8.23;;;8.10;99.90;;;;;;5054878;28;20131;-81
2021/12/30 01:22:25;;;;;;;45.97;8.15;;;8.00;99.90;;;;;;5055101;28;20044;-81
2021/12/30 01:24:51;;;;;;;52.17;8.18;;;8.00;99.90;;;;;;5055523;28;20113;-81
2021/12/30 01:27:18;;;;;;;55.15;8.45;;;8.00;99.90;;;;;;5054864;28;20052;-81
2021/12/30 01:29:47;;;;;;;61.70;8.40;;;8.00;99.90;;;;;;5038747;28;20085;-81
2021/12/30 01:32:13;;;;;;;67.40;8.73;;;7.90;99.90;;;;;;5055959;28;20110;-81
2021/12/30 01:34:39;;;;;;;65.15;8.45;;;7.90;99.90;;;;;;5054584;28;20052;-81
2021/12/30 01:37:05;;;;;;;60.65;8.88;;;7.90;99.90;;;;;;5055311;28;20048;-81
2021/12/30 01:39:34;;;;;;;63.13;7.28;;;7.90;99.90;;;;;;5054882;28;20148;-81
2021/12/30 01:42:00;;;;;;;51.03;6.80;;;7.90;99.90;;;;;;5054724;28;20052;-81
2021/12/30 01:44:30;;;;;;;56.47;8.63;;;7.80;99.90;;;;;;5055470;28;20173;-80
2021/12/30 01:47:03;;;;;;;60.20;8.13;;;7.80;99.90;;;;;;5038085;28;20101;-80
2021/12/30 01:49:29;;;;;;;51.95;7.95;;;7.80;99.90;;;;;;5038105;28;20053;-80
2021/12/30 01:51:55;;;;;;;53.50;7.63;;;7.80;99.90;;;;;;5037964;28;20495;-81
2021/12/30 01:54:22;;;;;;;62.25;8.98;;;7.80;99.90;;;;;;5055302;28;20049;-81
2021/12/30 01:56:50;;;;;;;50.50;7.60;;;7.90;99.90;;;;;;5050014;28;20041;-81
2021/12/30 01:59:19;;;;;;;51.08;6.75;;;7.80;99.90;;;;;;5044030;28;20048;-81
2021/12/30 02:01:45;;;;;;;59.88;7.57;;;7.80;99.90;;;;;;5054780;28;20044;-81
2021/12/30 02:04:13;;;;;;;63.38;8.07;;;7.80;99.90;;;;;;5054474;28;20091;-81
2021/12/30 02:06:38;;;;;;;67.15;7.35;;;7.80;99.90;;;;;;5038404;28;20040;-80
2021/12/30 02:09:04;;;;;;;72.50;8.77;;;7.70;99.90;;;;;;5055118;28;20492;-80
2021/12/30 02:11:30;;;;;;;57.53;7.82;;;7.70;99.90;;;;;;5054153;28;20138;-81
2021/12/30 02:13:56;;;;;;;46.33;7.65;;;7.70;99.90;;;;;;5055516;28;20040;-81
2021/12/30 02:16:23;;;;;;;60.30;8.55;;;7.80;99.90;;;;;;5051487;28;20123;-81
2021/12/30 02:18:49;;;;;;;77.40;8.73;;;7.70;99.90;;;;;;5034502;28;20052;-81
2021/12/30 02:21:15;;;;;;;68.47;8.93;;;7.70;99.90;;;;;;5021758;28;20052;-81
2021/12/30 02:23:41;;;;;;;59.60;8.93;;;7.70;99.90;;;;;;5041515;28;20066;-81
2021/12/30 02:26:14;;;;;;;67.80;7.78;;;7.70;99.90;;;;;;5055111;28;20123;-81
2021/12/30 02:28:41;;;;;;;64.03;9.20;;;7.70;99.90;;;;;;5054851;28;20083;-81
2021/12/30 02:31:16;;;;;;;59.53;9.13;;;7.70;99.90;;;;;;5054372;28;20055;-81
2021/12/30 02:33:43;;;;;;;59.45;8.90;;;7.70;99.90;;;;;;5038125;28;20454;-81
2021/12/30 02:36:10;;;;;;;70.60;11.55;;;7.70;99.90;;;;;;5051283;28;20045;-80
2021/12/30 02:38:35;;;;;;;57.10;9.68;;;7.80;99.90;;;;;;5039112;28;20408;-81
2021/12/30 02:41:03;;;;;;;62.80;10.10;;;7.80;99.90;;;;;;5055202;28;20098;-81
2021/12/30 02:43:31;;;;;;;70.35;9.18;;;7.80;99.90;;;;;;5054772;28;20045;-81
2021/12/30 02:45:58;;;;;;;62.20;9.45;;;7.90;99.90;;;;;;5037429;28;20044;-81
2021/12/30 02:48:33;;;;;;;73.43;9.90;;;7.80;99.90;;;;;;5054284;28;20055;-81
2021/12/30 02:51:02;;;;;;;73.97;9.05;;;7.90;99.90;;;;;;5052518;28;20135;-81
2021/12/30 02:53:28;;;;;;;58.53;9.07;;;7.90;99.90;;;;;;5054102;28;20075;-80
2021/12/30 02:55:54;;;;;;;73.28;9.68;;;7.90;99.90;;;;;;5050778;28;20488;-81
2021/12/30 02:58:21;;;;;;;65.07;9.85;;;7.90;99.90;;;;;;5054548;28;20059;-81
2021/12/30 03:00:49;;;;;;;71.57;10.20;;;7.90;99.90;;;;;;5054141;28;20044;-81
2021/12/30 03:03:17;;;;;;;79.90;12.27;;;8.00;99.90;;;;;;5054759;28;20566;-81
2021/12/30 03:05:43;;;;;;;79.05;12.20;;;8.00;99.90;;;;;;5053641;28;20380;-80
2021/12/30 03:08:09;;;;;;;81.53;12.35;;;8.10;99.90;;;;;;5075519;28;20050;-80
2021/12/30 03:10:35;;;;;;;68.32;11.82;;;8.10;99.90;;;;;;5057877;28;20044;-80
2021/12/30 03:13:07;;;;;;;81.05;14.95;;;8.20;99.90;;;;;;5040644;28;20052;-81
2021/12/30 03:15:33;;;;;;;68.72;12.18;;;8.30;99.90;;;;;;5058097;28;20113;-81
2021/12/30 03:17:59;;;;;;;90.45;13.75;;;8.30;99.90;;;;;;5058023;28;20476;-81
2021/12/30 03:20:25;;;;;;;79.22;16.60;;;8.30;99.90;;;;;;5056537;28;20053;-80
2021/12/30 03:22:50;;;;;;;70.35;13.82;;;8.30;99.90;;;;;;5057595;28;20045;-80
2021/12/30 03:25:16;;;;;;;83.55;13.18;;;8.40;99.90;;;;;;5058128;28;20131;-81
2021/12/30 03:27:43;;;;;;;83.10;14.02;;;8.40;99.90;;;;;;5039942;28;20044;-81
2021/12/30 03:30:13;;;;;;;83.45;12.85;;;8.40;99.90;;;;;;5057825;28;20496;-80
2021/12/30 03:32:39;;;;;;;83.55;13.00;;;8.40;99.90;;;;;;5057610;28;20047;-81
2021/12/30 03:35:06;;;;;;;85.50;12.90;;;8.40;99.90;;;;;;5056246;28;20487;-80
2021/12/30 03:37:32;;;;;;;87.47;12.75;;;8.40;99.90;;;;;;5057500;28;20106;-81
2021/12/30 03:39:57;;;;;;;77.53;13.20;;;8.50;99.90;;;;;;5041021;28;20044;-81
2021/12/30 03:42:23;;;;;;;87.85;14.43;;;8.50;99.90;;;;;;5053140;28;20037;-80
2021/12/30 03:44:56;;;;;;;94.95;12.55;;;8.50;99.90;;;;;;5021165;28;20041;-81
2021/12/30 03:47:22;;;;;;;80.28;13.23;;;8.50;99.90;;;;;;5042462;28;20519;-81
2021/12/30 03:49:48;;;;;;;95.57;15.02;;;8.50;99.90;;;;;;5040076;28;20044;-81
2021/12/30 03:52:22;;;;;;;81.28;14.77;;;8.50;99.90;;;;;;5057147;28;20041;-81
2021/12/30 03:54:48;;;;;;;80.38;12.68;;;8.50;99.90;;;;;;5057553;28;20127;-81
2021/12/30 03:57:14;;;;;;;92.65;13.57;;;8.50;99.90;;;;;;5039351;28;20155;-81
2021/12/30 03:59:39;;;;;;;92.95;12.80;;;8.50;99.90;;;;;;5040629;28;20055;-81
2021/12/30 04:02:05;;;;;;;81.13;12.95;;;8.50;99.90;;;;;;5073058;28;20551;-81
2021/12/30 04:04:32;;;;;;;87.25;13.05;;;8.60;99.90;;;;;;5057544;28;20088;-81
2021/12/30 04:06:57;;;;;;;90.22;12.77;;;8.60;99.90;;;;;;5055367;28;20406;-81
2021/12/30 04:09:24;;;;;;;85.68;12.40;;;8.60;99.90;;;;;;5039229;28;20043;-81
2021/12/30 04:11:49;;;;;;;95.68;13.57;;;8.60;99.90;;;;;;5057335;28;20055;-81
2021/12/30 04:14:15;;;;;;;83.32;12.18;;;8.60;99.90;;;;;;5056778;28;20484;-81
2021/12/30 04:16:41;;;;;;;85.70;12.98;;;8.70;99.90;;;;;;5056318;28;20048;-81
2021/12/30 04:19:07;;;;;;;82.47;12.25;;;8.70;99.90;;;;;;5052653;28;20482;-81
2021/12/30 04:21:33;;;;;;;89.90;12.70;;;8.70;99.90;;;;;;5053575;28;20060;-81
2021/12/30 04:23:59;;;;;;;81.13;12.18;;;8.80;99.90;;;;;;5052382;28;20063;-80
2021/12/30 04:26:25;;;;;;;98.55;12.93;;;8.80;99.90;;;;;;5053519;28;20049;-81
2021/12/30 04:28:50;;;;;;;93.10;12.00;;;8.80;99.90;;;;;;5052901;28;20103;-81
2021/12/30 04:31:16;;;;;;;92.10;13.73;;;8.90;99.90;;;;;;5036129;28;20091;-81
2021/12/30 04:33:42;;;;;;;93.10;14.18;;;9.00;99.90;;;;;;5054425;28;20443;-80
2021/12/30 04:36:08;;;;;;;98.57;13.27;;;9.10;99.90;;;;;;5053048;28;20040;-81
2021/12/30 04:38:36;;;;;;;89.85;12.73;;;9.20;99.90;;;;;;5052209;28;20083;-80
2021/12/30 04:41:04;;;;;;;95.07;17.02;;;9.20;99.90;;;;;;5053433;28;20048;-80
2021/12/30 04:43:29;;;;;;;103.50;17.50;;;9.30;99.90;;;;;;5053125;28;20114;-81
2021/12/30 04:45:55;;;;;;;104.63;17.75;;;9.40;99.90;;;;;;5052409;28;20153;-81
2021/12/30 04:48:22;;;;;;;104.72;19.15;;;9.50;99.90;;;;;;5049445;28;20056;-81
2021/12/30 04:50:48;;;;;;;111.15;21.00;;;9.60;99.90;;;;;;5021531;28;20041;-80
2021/12/30 04:53:15;;;;;;;102.80;19.38;;;9.70;99.90;;;;;;5044312;28;20045;-80
2021/12/30 04:55:41;;;;;;;105.43;19.35;;;9.80;99.90;;;;;;5053211;28;20063;-80
2021/12/30 04:58:07;;;;;;;102.25;21.98;;;9.80;99.90;;;;;;5049368;28;20037;-80
2021/12/30 05:00:33;;;;;;;104.93;20.67;;;9.90;99.90;;;;;;5032159;28;20060;-80
2021/12/30 05:03:15;;;;;;;107.38;20.85;;;10.00;99.90;;;;;;5055888;28;20048;-80
2021/12/30 05:05:47;;;;;;;111.53;21.45;;;10.00;99.90;;;;;;5035246;28;20081;-81
2021/12/30 05:08:14;;;;;;;107.88;20.30;;;10.00;99.90;;;;;;5052408;28;20098;-81
2021/12/30 05:10:40;;;;;;;125.07;20.98;;;10.10;99.90;;;;;;5036194;28;20037;-81
2021/12/30 05:13:08;;;;;;;115.85;21.35;;;10.10;99.90;;;;;;5050905;28;20102;-79
2021/12/30 05:15:34;;;;;;;99.90;19.52;;;10.20;99.90;;;;;;5052989;28;20045;-80
2021/12/30 05:18:01;;;;;;;102.10;18.80;;;10.20;99.90;;;;;;5052416;28;20049;-80
2021/12/30 05:20:27;;;;;;;84.07;18.08;;;10.20;99.90;;;;;;5051257;28;20049;-81
2021/12/30 05:22:53;;;;;;;78.35;16.48;;;10.20;99.90;;;;;;5069511;28;20121;-80
2021/12/30 05:25:19;;;;;;;70.18;16.52;;;10.20;99.90;;;;;;5055448;28;20098;-80
2021/12/30 05:27:46;;;;;;;88.07;18.23;;;10.30;99.90;;;;;;5054781;28;20507;-80
2021/12/30 05:30:14;;;;;;;65.30;16.80;;;10.30;99.90;;;;;;5055436;28;20580;-81
2021/12/30 05:32:40;;;;;;;66.20;16.38;;;10.30;99.90;;;;;;5055246;28;20087;-81
2021/12/30 05:35:08;;;;;;;61.30;16.23;;;10.30;99.90;;;;;;5037821;28;20048;-81
2021/12/30 05:37:34;;;;;;;76.30;17.85;;;10.30;99.90;;;;;;5038957;28;20475;-81
2021/12/30 05:40:00;;;;;;;69.35;17.17;;;10.40;99.90;;;;;;5055574;28;20040;-80
2021/12/30 05:42:26;;;;;;;71.80;15.90;;;10.40;99.90;;;;;;5054495;28;20048;-81
2021/12/30 05:44:53;;;;;;;62.35;16.73;;;10.40;99.90;;;;;;5055353;28;20048;-81
2021/12/30 05:47:20;;;;;;;67.28;18.42;;;10.40;99.90;;;;;;5073072;28;20445;-81
2021/12/30 05:49:46;;;;;;;65.95;18.17;;;10.40;99.90;;;;;;5054012;28;20146;-81
2021/12/30 05:52:13;;;;;;;73.95;18.48;;;10.40;99.90;;;;;;5038482;28;20375;-82
2021/12/30 05:54:42;;;;;;;78.53;18.55;;;10.50;99.90;;;;;;5053993;28;20048;-80
2021/12/30 05:57:08;;;;;;;84.75;21.05;;;10.50;99.90;;;;;;5038915;28;20056;-81
2021/12/30 05:59:35;;;;;;;113.03;22.88;;;10.50;99.90;;;;;;5038741;28;20399;-81
2021/12/30 06:02:00;;;;;;;93.90;21.00;;;10.50;99.90;;;;;;5054709;28;20048;-81
2021/12/30 06:04:26;;;;;;;105.15;22.45;;;10.50;99.90;;;;;;5055004;28;20040;-81
2021/12/30 06:06:52;;;;;;;110.07;23.52;;;10.60;99.90;;;;;;5038282;28;20041;-81
2021/12/30 06:09:21;;;;;;;136.75;26.13;;;10.60;99.90;;;;;;5037255;28;20487;-81
2021/12/30 06:11:47;;;;;;;116.18;23.45;;;10.60;99.90;;;;;;5038227;28;20087;-81
2021/12/30 06:14:13;;;;;;;139.18;26.52;;;10.60;99.90;;;;;;5054957;28;20090;-81
2021/12/30 06:16:39;;;;;;;111.82;24.85;;;10.70;99.90;;;;;;5034208;28;20760;-81
2021/12/30 06:19:04;;;;;;;158.52;27.00;;;10.70;99.90;;;;;;5054793;28;20439;-81
2021/12/30 06:21:30;;;;;;;151.32;27.27;;;10.80;99.90;;;;;;5054567;28;20052;-81
2021/12/30 06:23:56;;;;;;;146.80;26.10;;;10.70;99.90;;;;;;5053985;28;20048;-81
2021/12/30 06:26:22;;;;;;;123.85;25.90;;;10.80;99.90;;;;;;5055134;28;20047;-81
2021/12/30 06:28:48;;;;;;;150.80;24.00;;;10.80;99.90;;;;;;5054786;28;20055;-81
2021/12/30 06:31:14;;;;;;;102.40;20.63;;;10.80;99.90;;;;;;5054013;28;20135;-81
2021/12/30 06:33:39;;;;;;;80.20;19.75;;;10.80;99.90;;;;;;5055024;28;20080;-81
2021/12/30 06:36:06;;;;;;;84.30;18.98;;;10.90;99.90;;;;;;5054720;28;20555;-81
2021/12/30 06:38:33;;;;;;;97.45;21.35;;;10.90;99.90;;;;;;5054276;28;20052;-80
2021/12/30 06:40:59;;;;;;;85.88;18.85;;;10.90;99.90;;;;;;5050945;28;20049;-81
2021/12/30 06:43:25;;;;;;;67.72;16.88;;;10.90;99.90;;;;;;5055654;28;20049;-81
2021/12/30 06:45:51;;;;;;;77.00;18.50;;;10.90;99.90;;;;;;5069935;28;20390;-81
2021/12/30 06:48:17;;;;;;;63.15;16.00;;;10.90;99.90;;;;;;5076201;28;20052;-81
2021/12/30 06:50:52;;;;;;;60.15;16.08;;;10.90;99.90;;;;;;5058208;28;20499;-81
2021/12/30 06:53:22;;;;;;;56.40;15.48;;;10.90;99.90;;;;;;5076165;28;20067;-81
2021/12/30 06:55:49;;;;;;;56.85;14.88;;;10.90;99.90;;;;;;5042135;28;20052;-81
2021/12/30 06:58:16;;;;;;;47.85;14.23;;;10.90;99.90;;;;;;5057243;28;20054;-81
2021/12/30 07:00:42;;;;;;;40.50;13.50;;;10.90;99.90;;;;;;5041224;28;20098;-81
2021/12/30 07:03:08;;;;;;;37.80;13.05;;;10.90;99.90;;;;;;5041814;28;20041;-81
2021/12/30 07:05:34;;;;;;;40.65;13.43;;;10.90;99.90;;;;;;5074685;28;20048;-81
2021/12/30 07:08:00;;;;;;;31.60;11.73;;;10.90;99.90;;;;;;5041526;28;20098;-81
2021/12/30 07:10:27;;;;;;;30.25;11.77;;;10.90;99.90;;;;;;5075413;28;20036;-81
2021/12/30 07:12:53;;;;;;;35.28;13.10;;;11.00;99.90;;;;;;5057360;28;20055;-80
2021/12/30 07:15:18;;;;;;;29.85;10.88;;;11.00;99.90;;;;;;5054944;28;20124;-80
2021/12/30 07:17:44;;;;;;;45.78;13.38;;;11.00;99.90;;;;;;5042361;28;20547;-80
2021/12/30 07:20:11;;;;;;;30.35;10.85;;;11.00;99.90;;;;;;5056592;28;20064;-80
2021/12/30 07:22:37;;;;;;;26.10;10.77;;;11.10;99.90;;;;;;5057946;28;20075;-80
2021/12/30 07:25:03;;;;;;;21.10;9.43;;;11.10;99.90;;;;;;5058043;28;20075;-80
2021/12/30 07:27:30;;;;;;;16.48;8.57;;;11.10;99.90;;;;;;5039738;28;20120;-80
2021/12/30 07:29:57;;;;;;;14.30;7.82;;;11.10;99.90;;;;;;5075709;28;20549;-80
2021/12/30 07:32:23;;;;;;;21.20;7.55;;;11.10;99.90;;;;;;5054185;28;20464;-80
2021/12/30 07:34:48;;;;;;;14.77;7.60;;;11.10;99.90;;;;;;5051661;28;20076;-80
2021/12/30 07:37:14;;;;;;;16.52;7.53;;;11.20;99.90;;;;;;5054006;28;20117;-78
2021/12/30 07:39:41;;;;;;;14.10;6.07;;;11.20;99.90;;;;;;5031662;28;20088;-81
2021/12/30 07:42:07;;;;;;;15.45;6.82;;;11.20;99.90;;;;;;5037427;28;20128;-81
2021/12/30 07:44:33;;;;;;;14.27;6.03;;;11.20;99.90;;;;;;5041162;28;20123;-79
2021/12/30 07:46:59;;;;;;;10.65;5.53;;;11.20;99.90;;;;;;5024601;28;20488;-80
2021/12/30 07:49:37;;;;;;;9.77;5.30;;;11.30;99.90;;;;;;5056626;28;20044;-78
2021/12/30 07:52:07;;;;;;;7.85;4.53;;;11.30;99.90;;;;;;5056824;28;20040;-78
2021/12/30 07:54:33;;;;;;;8.55;5.15;;;11.30;99.90;;;;;;5038877;28;20060;-78
2021/12/30 07:57:00;;;;;;;7.22;4.80;;;11.30;99.90;;;;;;5057282;28;20048;-78
2021/12/30 07:59:28;;;;;;;10.50;4.80;;;11.30;99.90;;;;;;5057239;28;20048;-77
2021/12/30 08:01:54;;;;;;;12.98;5.32;;;11.30;99.90;;;;;;5056230;28;20458;-78
2021/12/30 08:04:20;;;;;;;9.38;5.57;;;11.30;99.90;;;;;;5040805;28;20056;-77
2021/12/30 08:06:46;;;;;;;9.40;5.72;;;11.30;99.90;;;;;;5057006;28;20048;-77
2021/12/30 08:09:11;;;;;;;12.13;6.03;;;11.30;99.90;;;;;;5056147;28;20109;-78
2021/12/30 08:11:37;;;;;;;14.25;7.20;;;11.30;99.90;;;;;;5053591;28;20049;-77
2021/12/30 08:14:03;;;;;;;16.45;7.18;;;11.30;99.90;;;;;;5053954;28;20060;-77
2021/12/30 08:16:29;;;;;;;16.27;8.18;;;11.40;99.90;;;;;;5058305;28;20043;-78
2021/12/30 08:18:57;;;;;;;20.08;9.63;;;11.40;99.90;;;;;;5056962;28;20061;-78
2021/12/30 08:21:23;;;;;;;22.15;9.13;;;11.40;99.90;;;;;;5056210;28;20137;-77
2021/12/30 08:23:51;;;;;;;25.48;9.88;;;11.40;99.90;;;;;;5039547;28;20084;-77
2021/12/30 08:26:18;;;;;;;24.70;9.40;;;11.40;99.90;;;;;;5053249;28;20429;-76
2021/12/30 08:28:45;;;;;;;23.02;7.95;;;11.40;99.90;;;;;;5059904;28;20083;-76
2021/12/30 08:31:11;;;;;;;26.98;8.65;;;11.50;99.90;;;;;;5056080;28;20045;-77
2021/12/30 08:33:37;;;;;;;27.05;6.75;;;11.50;99.90;;;;;;5053311;28;20060;-77
2021/12/30 08:36:03;;;;;;;19.33;6.97;;;11.50;99.90;;;;;;5063262;28;20052;-77
2021/12/30 08:38:29;;;;;;;24.88;7.18;;;11.50;99.90;;;;;;5055563;28;20041;-78
2021/12/30 08:40:56;;;;;;;20.55;6.00;;;11.50;99.90;;;;;;5056503;28;20132;-78
2021/12/30 08:43:21;;;;;;;27.17;6.78;;;11.50;99.90;;;;;;5055537;28;20113;-78
2021/12/30 08:45:48;;;;;;;29.55;6.45;;;11.50;99.90;;;;;;5056568;28;20044;-77
2021/12/30 08:48:15;;;;;;;25.27;6.22;;;11.60;99.90;;;;;;5039437;28;20049;-77
2021/12/30 08:50:41;;;;;;;23.40;5.70;;;11.60;99.90;;;;;;5073275;28;20124;-81
2021/12/30 08:53:08;;;;;;;31.80;6.47;;;11.60;99.90;;;;;;5052401;28;20116;-76
2021/12/30 08:55:35;;;;;;;33.15;6.70;;;11.60;99.90;;;;;;5052099;28;20483;-75
2021/12/30 08:58:00;;;;;;;26.85;5.75;;;11.60;99.90;;;;;;5073403;28;20040;-77
2021/12/30 09:00:29;;;;;;;23.50;4.70;;;11.60;99.90;;;;;;5055459;28;20373;-77
2021/12/30 09:02:57;;;;;;;29.27;5.70;;;11.60;99.90;;;;;;5039367;28;20056;-77
2021/12/30 09:05:24;;;;;;;23.48;6.15;;;11.60;99.90;;;;;;5037637;28;20058;-76
2021/12/30 09:07:50;;;;;;;31.00;4.95;;;11.60;99.90;;;;;;5055703;28;20060;-76
2021/12/30 09:10:18;;;;;;;24.05;4.43;;;11.60;99.90;;;;;;5074068;28;20053;-76
2021/12/30 09:12:46;;;;;;;23.52;5.53;;;11.60;99.90;;;;;;5054900;28;20543;-76
2021/12/30 09:15:16;;;;;;;20.75;4.70;;;11.60;99.90;;;;;;5055622;28;20055;-77
2021/12/30 09:17:45;;;;;;;29.58;4.88;;;11.60;99.90;;;;;;5055430;28;20044;-77
2021/12/30 09:20:11;;;;;;;21.05;4.40;;;11.60;99.90;;;;;;5050917;28;20060;-80
2021/12/30 09:22:38;;;;;;;24.77;4.63;;;11.60;99.90;;;;;;5052103;28;20128;-80
2021/12/30 09:25:07;;;;;;;22.85;4.55;;;11.60;99.90;;;;;;5051610;28;20052;-79
2021/12/30 09:27:38;;;;;;;25.02;5.18;;;11.60;99.90;;;;;;5049364;28;20048;-77
2021/12/30 09:30:12;;;;;;;28.67;5.20;;;11.60;99.90;;;;;;5052241;28;20503;-77
2021/12/30 09:32:38;;;;;;;33.22;6.07;;;11.60;99.90;;;;;;5050262;28;20037;-79
2021/12/30 09:35:04;;;;;;;23.65;4.85;;;11.60;99.90;;;;;;5051961;28;20098;-80
2021/12/30 09:37:30;;;;;;;29.08;4.68;;;11.60;99.90;;;;;;5047767;28;20044;-76
2021/12/30 09:39:58;;;;;;;25.20;5.13;;;11.60;99.90;;;;;;5019038;28;20094;-76
2021/12/30 09:42:24;;;;;;;21.77;4.75;;;11.70;99.90;;;;;;5048623;28;20053;-76
2021/12/30 09:44:50;;;;;;;31.25;5.97;;;11.60;99.90;;;;;;5018201;28;20041;-77
2021/12/30 09:47:19;;;;;;;26.08;5.05;;;11.60;99.90;;;;;;5034520;28;20175;-76
2021/12/30 09:49:47;;;;;;;22.58;4.55;;;11.70;99.90;;;;;;5051413;28;20119;-75
2021/12/30 09:52:13;;;;;;;28.38;7.00;;;11.60;99.90;;;;;;5052205;28;20079;-75
2021/12/30 09:54:39;;;;;;;23.80;5.97;;;11.70;99.90;;;;;;5050948;28;20072;-79
2021/12/30 09:57:05;;;;;;;34.92;6.15;;;11.60;99.90;;;;;;5035551;28;20033;-79
2021/12/30 09:59:31;;;;;;;26.35;6.03;;;11.60;99.90;;;;;;5051748;28;20540;-79
2021/12/30 10:01:58;;;;;;;26.17;5.57;;;11.60;99.90;;;;;;5051072;28;20045;-79
2021/12/30 10:04:31;;;;;;;25.08;5.30;;;11.60;99.90;;;;;;5051312;28;20052;-76
2021/12/30 10:06:57;;;;;;;27.20;5.25;;;11.60;99.90;;;;;;5051409;28;20191;-80
2021/12/30 10:09:34;;;;;;;34.78;6.10;;;11.60;99.90;;;;;;5050237;28;20119;-80
2021/12/30 10:12:00;;;;;;;34.47;5.75;;;11.60;99.90;;;;;;5034943;28;20045;-79
2021/12/30 10:14:29;;;;;;;32.67;6.82;;;11.60;99.90;;;;;;5051844;28;20420;-79
2021/12/30 10:17:18;;;;;;;25.83;5.18;;;11.60;99.90;;;;;;5048860;28;20095;-79
2021/12/30 10:19:44;;;;;;;27.48;5.00;;;11.60;99.90;;;;;;5039598;28;20134;-79
2021/12/30 10:22:12;;;;;;;29.90;5.68;;;11.60;99.90;;;;;;5037869;28;20037;-79
2021/12/30 10:24:39;;;;;;;30.42;5.20;;;11.60;99.90;;;;;;5056533;28;20071;-78
2021/12/30 10:27:06;;;;;;;21.85;4.38;;;11.60;99.90;;;;;;5049172;28;20052;-78
2021/12/30 10:29:42;;;;;;;33.70;6.90;;;11.60;99.90;;;;;;5055373;28;20056;-78
2021/12/30 10:32:15;;;;;;;35.53;5.30;;;11.70;99.90;;;;;;5022282;28;20045;-79
2021/12/30 10:35:06;;;;;;;34.70;5.85;;;11.70;99.90;;;;;;5035852;28;20037;-79
2021/12/30 10:37:32;;;;;;;32.63;6.55;;;11.60;99.90;;;;;;5035052;28;20054;-79
2021/12/30 10:39:58;;;;;;;28.75;6.55;;;11.60;99.90;;;;;;5042226;28;20064;-78
2021/12/30 10:42:25;;;;;;;29.73;6.18;;;11.60;99.90;;;;;;5055274;28;20041;-79
2021/12/30 10:45:04;;;;;;;25.42;5.30;;;11.60;99.90;;;;;;5054712;28;20113;-79
2021/12/30 10:47:51;;;;;;;42.15;7.82;;;11.70;99.90;;;;;;5038405;28;20045;-78
2021/12/30 10:50:21;;;;;;;34.58;8.23;;;11.60;99.90;;;;;;5037721;28;20067;-78
2021/12/30 10:52:53;;;;;;;35.22;7.03;;;11.60;99.90;;;;;;5037989;28;20442;-78
2021/12/30 10:55:20;;;;;;;36.85;7.60;;;11.60;99.90;;;;;;5038424;28;20146;-78
2021/12/30 10:57:46;;;;;;;50.17;7.93;;;11.60;99.90;;;;;;5037010;28;20488;-77
2021/12/30 11:00:30;;;;;;;45.20;7.28;;;11.60;99.90;;;;;;5054804;28;20130;-77
2021/12/30 11:03:16;;;;;;;42.08;8.13;;;11.60;99.90;;;;;;5037848;28;20087;-78
2021/12/30 11:06:11;;;;;;;46.40;8.05;;;11.60;99.90;;;;;;5037182;28;20063;-77
2021/12/30 11:08:37;;;;;;;43.65;7.97;;;11.70;99.90;;;;;;5038046;28;20080;-78
2021/12/30 11:11:33;;;;;;;47.00;7.32;;;11.70;99.90;;;;;;5037486;28;20040;-77
2021/12/30 11:14:01;;;;;;;45.03;9.30;;;11.70;99.90;;;;;;5039292;28;20065;-78
2021/12/30 11:16:27;;;;;;;45.97;7.68;;;11.70;99.90;;;;;;5055410;28;20049;-77
2021/12/30 11:18:56;;;;;;;43.42;8.30;;;11.70;99.90;;;;;;5054739;28;20060;-79
2021/12/30 11:21:42;;;;;;;54.28;8.32;;;11.70;99.90;;;;;;5047039;28;20075;-78
2021/12/30 11:24:10;;;;;;;39.35;7.32;;;11.70;99.90;;;;;;5048119;28;20446;-79
2021/12/30 11:26:36;;;;;;;60.03;9.52;;;11.70;99.90;;;;;;5053777;28;20056;-79
2021/12/30 11:29:04;;;;;;;56.63;8.10;;;11.70;99.90;;;;;;5056957;28;20094;-80
2021/12/30 11:31:34;;;;;;;46.22;8.27;;;11.70;99.90;;;;;;5057323;28;20033;-78
2021/12/30 11:34:00;;;;;;;40.00;6.85;;;11.70;99.90;;;;;;5057039;28;20047;-80
2021/12/30 11:36:30;;;;;;;41.90;7.65;;;11.70;99.90;;;;;;5057517;28;20037;-81
2021/12/30 11:38:57;;;;;;;48.72;7.63;;;11.70;99.90;;;;;;5057921;28;20511;-79
2021/12/30 11:41:26;;;;;;;39.50;7.55;;;11.70;99.90;;;;;;5074968;28;20105;-79
2021/12/30 11:43:51;;;;;;;41.40;6.90;;;11.70;99.90;;;;;;5057512;28;20053;-77
2021/12/30 11:46:37;;;;;;;51.05;8.23;;;11.70;99.90;;;;;;5056833;28;20041;-80
2021/12/30 11:49:05;;;;;;;50.25;7.93;;;11.70;99.90;;;;;;5058080;28;20404;-80
2021/12/30 11:51:48;;;;;;;41.55;8.55;;;11.70;99.90;;;;;;5075287;28;20054;-80
2021/12/30 11:54:35;;;;;;;40.00;7.10;;;11.70;99.90;;;;;;5056937;28;20060;-79
2021/12/30 11:57:32;;;;;;;43.88;7.57;;;11.70;99.90;;;;;;5057601;28;20099;-79
2021/12/30 12:00:39;;;;;;;43.65;7.28;;;11.70;99.90;;;;;;5056526;28;20048;-78
2021/12/30 12:03:34;;;;;;;40.45;7.85;;;11.70;99.90;;;;;;5072659;28;20439;-78
2021/12/30 12:06:00;;;;;;;35.38;6.57;;;11.70;99.90;;;;;;5057315;28;20404;-77
2021/12/30 12:08:45;;;;;;;42.97;7.32;;;11.70;99.90;;;;;;5074294;28;20465;-77
2021/12/30 12:11:20;;;;;;;43.10;6.65;;;11.70;99.90;;;;;;5056933;28;20500;-77
2021/12/30 12:13:47;;;;;;;45.42;6.20;;;11.80;99.90;;;;;;5057854;28;20132;-77
2021/12/30 12:16:37;;;;;;;40.28;5.97;;;11.80;99.90;;;;;;5056454;28;20040;-77
2021/12/30 12:19:08;;;;;;;44.22;6.50;;;11.80;99.90;;;;;;5074068;28;20059;-77
2021/12/30 12:21:52;;;;;;;37.80;6.85;;;11.80;99.90;;;;;;5056032;28;20094;-78
2021/12/30 12:24:21;;;;;;;36.33;6.65;;;11.80;99.90;;;;;;5056640;28;20120;-78
2021/12/30 12:26:49;;;;;;;38.10;6.82;;;11.80;99.90;;;;;;5057095;28;20053;-78
2021/12/30 12:29:34;;;;;;;40.03;7.65;;;11.80;99.90;;;;;;5073893;28;20102;-78
2021/12/30 12:32:10;;;;;;;36.97;6.13;;;11.80;99.90;;;;;;5074818;28;20063;-78
2021/12/30 12:34:54;;;;;;;36.78;6.68;;;11.80;99.90;;;;;;5057088;28;20056;-77
2021/12/30 12:37:39;;;;;;;36.30;7.07;;;11.80;99.90;;;;;;5056082;28;20046;-78
2021/12/30 12:40:05;;;;;;;39.15;6.85;;;11.80;99.90;;;;;;5039618;28;20488;-77
2021/12/30 12:42:43;;;;;;;35.00;5.53;;;11.80;99.90;;;;;;5073876;28;20423;-77